Time;durP1;ratioP1;P1;durP2;ratioP2;P2;SDS_P1;SDS_P2;PMS_P1;PMS_P2;Temp;Humidity;BMP_temperature;BMP_pressure;BME280_temperature;BME280_humidity;BME280_pressure;Samples;Min_cycle;Max_cycle;Signal;HPM_P1;HPM_P2
2021/09/26 00:00:26;;;;;;;22.50;13.27;;;23.10;55.30;;;;;;6238069;23;20381;-84
2021/09/26 00:03:08;;;;;;;21.83;14.63;;;23.10;55.40;;;;;;6236882;23;20386;-83
2021/09/26 00:05:34;;;;;;;22.17;14.90;;;23.10;55.30;;;;;;6214193;23;20375;-85
2021/09/26 00:08:01;;;;;;;22.33;13.70;;;23.10;55.40;;;;;;6211730;23;20428;-85
2021/09/26 00:10:28;;;;;;;25.30;13.80;;;23.10;55.30;;;;;;6238693;23;20438;-84
2021/09/26 00:13:17;;;;;;;23.50;14.30;;;23.10;55.30;;;;;;6237251;23;20362;-85
2021/09/26 00:15:47;;;;;;;22.57;13.23;;;23.10;55.30;;;;;;6238247;23;20354;-85
2021/09/26 00:18:15;;;;;;;25.27;13.93;;;23.10;55.40;;;;;;6236875;23;20440;-84
2021/09/26 00:20:41;;;;;;;20.57;12.60;;;23.10;55.40;;;;;;6237495;23;20370;-84
2021/09/26 00:23:07;;;;;;;20.70;13.00;;;23.10;55.40;;;;;;6211730;23;20444;-84
2021/09/26 00:25:36;;;;;;;18.40;12.60;;;23.20;55.40;;;;;;6236257;23;20375;-84
2021/09/26 00:28:08;;;;;;;23.80;15.00;;;23.10;55.40;;;;;;6211689;23;20171;-84
2021/09/26 00:30:37;;;;;;;19.70;12.57;;;23.10;55.30;;;;;;6212056;23;20374;-83
2021/09/26 00:33:03;;;;;;;19.37;12.60;;;23.20;55.40;;;;;;6237100;23;20719;-84
2021/09/26 00:35:29;;;;;;;24.43;14.70;;;23.10;55.30;;;;;;6255212;23;20393;-84
2021/09/26 00:38:04;;;;;;;21.07;13.87;;;23.10;55.40;;;;;;6268512;23;20373;-85
2021/09/26 00:40:40;;;;;;;20.27;13.20;;;23.20;55.40;;;;;;6267177;23;20384;-84
2021/09/26 00:43:09;;;;;;;24.20;13.47;;;23.20;55.40;;;;;;6242252;23;20384;-85
2021/09/26 00:45:35;;;;;;;20.87;12.67;;;23.10;55.40;;;;;;6242407;23;20405;-85
2021/09/26 00:48:04;;;;;;;17.20;12.83;;;23.10;55.30;;;;;;6240813;23;20421;-85
2021/09/26 00:50:34;;;;;;;18.83;12.07;;;23.10;55.40;;;;;;6268900;23;20369;-84
2021/09/26 00:53:01;;;;;;;21.87;12.63;;;23.10;55.30;;;;;;6241093;23;20378;-85
2021/09/26 00:55:30;;;;;;;18.70;12.20;;;23.10;55.40;;;;;;6242293;23;20437;-84
2021/09/26 00:58:00;;;;;;;20.90;13.20;;;23.20;55.40;;;;;;6242808;23;20472;-85
2021/09/26 01:00:29;;;;;;;17.20;11.80;;;23.20;55.40;;;;;;6217644;23;20452;-85
2021/09/26 01:03:04;;;;;;;20.63;10.70;;;23.20;55.40;;;;;;6267519;23;20381;-85
2021/09/26 01:05:33;;;;;;;18.70;12.27;;;23.20;55.40;;;;;;6215742;23;20886;-85
2021/09/26 01:08:42;;;;;;;16.97;11.50;;;23.20;55.40;;;;;;6242169;23;20443;-85
2021/09/26 01:11:36;;;;;;;16.90;11.83;;;23.20;55.40;;;;;;6242092;23;20407;-85
2021/09/26 01:14:38;;;;;;;21.30;13.30;;;23.20;55.50;;;;;;6241413;23;20373;-85
2021/09/26 01:17:48;;;;;;;15.23;11.33;;;23.20;55.50;;;;;;6270324;23;20364;-84
2021/09/26 01:20:26;;;;;;;21.57;11.90;;;23.20;55.50;;;;;;6223509;23;20376;-84
2021/09/26 01:23:05;;;;;;;20.17;11.13;;;23.10;55.50;;;;;;6244482;23;20418;-84
2021/09/26 01:25:53;;;;;;;18.90;10.57;;;23.10;55.50;;;;;;6244147;23;20377;-84
2021/09/26 01:28:27;;;;;;;15.33;11.70;;;23.10;55.40;;;;;;6243345;23;20428;-85
2021/09/26 01:30:57;;;;;;;17.27;10.80;;;23.10;55.50;;;;;;6243939;23;20462;-85
2021/09/26 01:33:38;;;;;;;11.77;9.70;;;23.10;55.50;;;;;;6243348;23;20369;-85
2021/09/26 01:36:23;;;;;;;19.00;12.50;;;23.10;55.40;;;;;;6219161;23;20782;-84
2021/09/26 01:39:24;;;;;;;17.53;11.40;;;23.20;55.50;;;;;;6245257;23;20373;-84
2021/09/26 01:42:06;;;;;;;16.37;10.90;;;23.10;55.50;;;;;;6119841;23;20373;-83
2021/09/26 01:45:03;;;;;;;17.40;11.50;;;23.10;55.50;;;;;;6098643;23;20381;-83
2021/09/26 01:47:56;;;;;;;14.83;10.33;;;23.20;55.50;;;;;;6120312;23;20378;-83
2021/09/26 01:50:24;;;;;;;14.77;9.90;;;23.10;55.50;;;;;;6119908;23;20382;-84
2021/09/26 01:52:58;;;;;;;15.40;9.70;;;23.10;55.50;;;;;;6095323;23;20413;-84
2021/09/26 01:55:31;;;;;;;20.97;11.43;;;23.20;55.60;;;;;;6119634;23;20358;-84
2021/09/26 01:58:02;;;;;;;15.20;10.83;;;23.10;55.50;;;;;;6072552;23;20420;-84
2021/09/26 02:00:32;;;;;;;20.63;10.70;;;23.20;55.50;;;;;;6096289;23;20382;-84
2021/09/26 02:10:03;;;;;;;18.43;11.87;;;23.10;55.50;;;;;;6090843;23;20398;-84
2021/09/26 02:22:41;;;;;;;13.53;8.90;;;23.10;55.50;;;;;;6090619;23;20427;-84
2021/09/26 02:25:09;;;;;;;13.80;9.17;;;23.10;55.60;;;;;;6042590;23;20394;-84
2021/09/26 02:27:37;;;;;;;12.77;9.80;;;23.10;55.60;;;;;;6043052;23;20485;-84
2021/09/26 02:30:06;;;;;;;15.70;11.10;;;23.10;55.60;;;;;;6090389;23;20371;-84
2021/09/26 02:32:33;;;;;;;15.73;9.90;;;23.10;55.50;;;;;;6067337;23;20393;-84
2021/09/26 02:35:00;;;;;;;15.43;9.47;;;23.10;55.60;;;;;;6065429;23;20447;-84
2021/09/26 02:37:26;;;;;;;15.47;10.80;;;23.10;55.50;;;;;;6042161;23;20387;-84
2021/09/26 02:39:52;;;;;;;13.70;9.47;;;23.10;55.50;;;;;;6084235;23;20388;-85
2021/09/26 02:42:38;;;;;;;12.67;9.50;;;23.10;55.50;;;;;;6153878;23;20384;-84
2021/09/26 02:45:33;;;;;;;15.53;10.13;;;23.20;55.50;;;;;;6153585;23;20380;-84
2021/09/26 02:48:32;;;;;;;15.97;10.60;;;23.20;55.50;;;;;;6177906;23;20411;-84
2021/09/26 02:51:00;;;;;;;13.10;9.33;;;23.20;55.50;;;;;;6095000;23;20382;-84
2021/09/26 02:53:28;;;;;;;12.73;8.80;;;23.10;55.50;;;;;;6095042;23;20388;-85
2021/09/26 02:56:00;;;;;;;14.30;8.87;;;23.10;55.50;;;;;;6098613;23;20894;-85
2021/09/26 02:58:27;;;;;;;11.90;8.33;;;23.10;55.50;;;;;;6178351;23;20384;-85
2021/09/26 03:00:54;;;;;;;16.10;9.80;;;23.20;55.50;;;;;;6179697;23;20384;-84
2021/09/26 03:03:28;;;;;;;12.07;8.40;;;23.20;55.60;;;;;;6180141;23;20387;-84
2021/09/26 03:05:56;;;;;;;11.77;8.57;;;23.20;55.50;;;;;;6153741;23;20355;-84
2021/09/26 03:08:24;;;;;;;13.80;9.57;;;23.20;55.50;;;;;;6154879;23;20488;-84
2021/09/26 03:10:56;;;;;;;12.90;8.53;;;23.20;55.60;;;;;;6155005;23;20380;-84
2021/09/26 03:13:24;;;;;;;12.00;8.40;;;23.20;55.50;;;;;;6129436;23;20411;-84
2021/09/26 03:15:50;;;;;;;12.00;8.37;;;23.20;55.50;;;;;;6155175;23;20383;-84
2021/09/26 03:18:16;;;;;;;10.90;7.93;;;23.10;55.40;;;;;;6180110;23;20392;-84
2021/09/26 03:20:52;;;;;;;8.50;7.60;;;23.10;55.40;;;;;;6128266;23;20408;-84
2021/09/26 03:23:23;;;;;;;14.57;10.67;;;23.20;55.40;;;;;;6105595;23;20459;-84
2021/09/26 03:26:04;;;;;;;12.10;7.80;;;23.20;55.50;;;;;;6152227;23;20392;-84
2021/09/26 03:31:56;;;;;;;9.50;7.73;;;23.20;55.40;;;;;;6271724;23;20377;-83
2021/09/26 03:38:08;;;;;;;12.17;9.03;;;23.10;55.40;;;;;;6256497;23;20393;-84
2021/09/26 03:40:33;;;;;;;8.27;6.97;;;23.10;55.50;;;;;;6218563;23;20397;-84
2021/09/26 03:43:03;;;;;;;8.70;7.80;;;23.10;55.50;;;;;;6188596;23;20386;-84
2021/09/26 03:45:32;;;;;;;8.90;6.77;;;23.10;55.40;;;;;;6213710;23;20383;-84
2021/09/26 03:48:08;;;;;;;6.57;5.83;;;23.10;55.40;;;;;;6239952;23;20414;-84
2021/09/26 03:50:36;;;;;;;6.33;5.70;;;23.10;55.30;;;;;;6212832;23;20423;-84
2021/09/26 03:53:03;;;;;;;7.43;6.33;;;23.10;55.90;;;;;;6213758;23;20386;-84
2021/09/26 03:55:37;;;;;;;7.43;6.50;;;23.10;55.20;;;;;;6188360;23;20849;-84
2021/09/26 03:58:08;;;;;;;7.27;5.90;;;23.10;55.20;;;;;;6213291;23;20378;-84
2021/09/26 04:00:51;;;;;;;8.77;6.20;;;23.10;55.20;;;;;;6189410;23;20382;-84
2021/09/26 04:03:20;;;;;;;6.07;5.50;;;23.10;55.20;;;;;;6192124;23;20390;-84
2021/09/26 04:05:57;;;;;;;7.80;6.50;;;23.10;55.20;;;;;;6213325;23;20390;-84
2021/09/26 04:08:28;;;;;;;5.77;4.97;;;23.10;55.20;;;;;;6237875;23;20443;-84
2021/09/26 04:10:58;;;;;;;6.63;6.03;;;23.10;55.20;;;;;;6188884;23;20382;-84
2021/09/26 04:13:29;;;;;;;8.80;6.30;;;23.10;55.10;;;;;;6237768;23;20371;-84
2021/09/26 04:15:59;;;;;;;8.73;6.57;;;23.10;55.10;;;;;;6239432;23;20445;-84
2021/09/26 04:18:25;;;;;;;7.43;5.83;;;23.10;55.10;;;;;;6212001;23;20386;-84
2021/09/26 04:20:55;;;;;;;7.07;5.47;;;23.10;55.10;;;;;;6214050;23;20386;-84
2021/09/26 04:23:21;;;;;;;5.87;5.17;;;23.10;55.10;;;;;;6234498;23;20378;-84
2021/09/26 04:25:48;;;;;;;7.20;5.90;;;23.10;55.10;;;;;;6212827;23;20445;-84
2021/09/26 04:28:15;;;;;;;7.87;6.47;;;23.10;55.10;;;;;;6235572;23;20414;-84
2021/09/26 04:30:43;;;;;;;5.83;5.33;;;23.10;55.10;;;;;;6190296;23;20393;-84
2021/09/26 04:33:19;;;;;;;8.70;6.90;;;23.10;55.20;;;;;;6239413;23;20373;-84
2021/09/26 04:35:53;;;;;;;7.93;5.53;;;23.10;55.20;;;;;;6214845;23;20401;-84
2021/09/26 04:38:21;;;;;;;7.27;6.57;;;23.10;55.20;;;;;;6206545;23;20406;-84
2021/09/26 04:41:16;;;;;;;9.07;6.60;;;23.10;55.30;;;;;;6237844;23;20936;-84
2021/09/26 04:43:42;;;;;;;6.23;5.53;;;23.10;55.20;;;;;;6238348;23;20390;-84
2021/09/26 04:46:12;;;;;;;8.27;5.70;;;23.10;55.20;;;;;;6238720;23;20374;-83
2021/09/26 04:48:38;;;;;;;7.60;6.30;;;23.10;55.20;;;;;;6237332;23;20194;-83
2021/09/26 04:51:13;;;;;;;6.83;6.07;;;23.20;55.30;;;;;;6238727;23;20402;-83
2021/09/26 04:53:47;;;;;;;5.90;5.10;;;23.20;55.80;;;;;;6240478;23;20147;-83
2021/09/26 04:56:17;;;;;;;6.57;5.97;;;23.20;55.20;;;;;;6239913;23;20374;-84
2021/09/26 04:58:44;;;;;;;6.07;5.07;;;23.20;55.20;;;;;;6239901;23;20385;-85
2021/09/26 05:01:23;;;;;;;8.23;5.20;;;23.20;55.20;;;;;;6238742;23;20398;-84
2021/09/26 05:03:51;;;;;;;6.23;5.30;;;23.20;55.10;;;;;;6238601;23;20382;-84
2021/09/26 05:06:18;;;;;;;6.30;5.70;;;23.20;55.10;;;;;;6213903;23;20387;-84
2021/09/26 05:08:46;;;;;;;6.20;5.30;;;23.20;55.10;;;;;;6240526;23;20474;-84
2021/09/26 05:11:12;;;;;;;6.27;5.47;;;23.20;55.10;;;;;;6241047;23;20358;-85
2021/09/26 05:13:38;;;;;;;5.60;5.00;;;23.20;55.00;;;;;;6239956;23;20388;-84
2021/09/26 05:16:07;;;;;;;7.10;5.83;;;23.30;55.10;;;;;;6240816;23;20373;-84
2021/09/26 05:18:34;;;;;;;6.73;5.07;;;23.30;55.10;;;;;;6240702;23;20394;-85
2021/09/26 05:21:03;;;;;;;5.87;5.27;;;23.30;55.10;;;;;;6242697;23;20450;-84
2021/09/26 05:23:38;;;;;;;6.70;5.67;;;23.30;55.10;;;;;;6242210;23;20370;-84
2021/09/26 05:26:08;;;;;;;7.00;5.30;;;23.30;55.00;;;;;;6241311;23;20373;-84
2021/09/26 05:28:50;;;;;;;5.60;5.10;;;23.30;55.00;;;;;;6192594;23;20437;-84
2021/09/26 05:31:17;;;;;;;5.40;4.80;;;23.30;55.00;;;;;;6241265;23;20414;-84
2021/09/26 05:33:44;;;;;;;6.53;5.07;;;23.30;55.00;;;;;;6242033;23;20354;-84
2021/09/26 05:36:12;;;;;;;5.23;4.83;;;23.30;55.00;;;;;;6241520;23;20385;-84
2021/09/26 05:38:39;;;;;;;6.00;5.00;;;23.30;55.00;;;;;;6265852;23;20380;-84
2021/09/26 05:41:05;;;;;;;7.93;5.30;;;23.30;55.00;;;;;;6244647;23;20438;-85
2021/09/26 05:43:32;;;;;;;5.10;4.60;;;23.30;55.60;;;;;;6267173;23;20403;-86
2021/09/26 05:49:30;;;;;;;5.10;4.70;;;23.40;55.00;;;;;;6271282;23;20173;-84
2021/09/26 05:52:02;;;;;;;5.70;4.90;;;23.30;55.00;;;;;;6270724;23;20369;-84
2021/09/26 06:08:18;;;;;;;5.87;4.70;;;23.30;55.10;;;;;;6090490;23;20410;-84
2021/09/26 06:10:51;;;;;;;5.70;4.50;;;23.30;55.10;;;;;;6042569;23;20424;-84
2021/09/26 06:13:19;;;;;;;5.70;5.20;;;23.30;55.10;;;;;;6089743;23;20398;-84
2021/09/26 06:15:46;;;;;;;7.10;4.97;;;23.30;55.10;;;;;;6063711;23;20880;-84
2021/09/26 06:18:11;;;;;;;5.90;5.07;;;23.30;55.10;;;;;;6086685;23;20375;-84
2021/09/26 06:20:38;;;;;;;8.33;4.93;;;23.30;55.10;;;;;;6084473;23;20154;-84
2021/09/26 06:23:04;;;;;;;6.60;4.57;;;23.40;55.10;;;;;;6084977;23;20397;-85
2021/09/26 06:25:30;;;;;;;5.20;4.70;;;23.40;55.10;;;;;;6087858;23;20482;-85
2021/09/26 06:27:57;;;;;;;5.77;4.43;;;23.40;55.10;;;;;;6088022;23;20185;-84
2021/09/26 06:30:24;;;;;;;5.37;4.80;;;23.40;54.70;;;;;;6088903;23;20391;-84
2021/09/26 06:32:50;;;;;;;6.63;4.60;;;23.40;55.00;;;;;;6159360;23;20402;-83
2021/09/26 06:35:16;;;;;;;4.93;4.20;;;23.40;55.00;;;;;;6233598;23;20350;-83
2021/09/26 06:37:45;;;;;;;4.70;4.30;;;23.40;55.00;;;;;;6242321;23;20393;-84
2021/09/26 06:40:12;;;;;;;5.23;4.73;;;23.40;55.00;;;;;;6242367;23;20377;-84
2021/09/26 06:42:38;;;;;;;5.10;4.43;;;23.40;55.00;;;;;;6242406;23;20411;-84
2021/09/26 06:45:06;;;;;;;5.00;4.30;;;23.40;55.10;;;;;;6268422;23;20377;-84
2021/09/26 06:47:31;;;;;;;6.07;5.57;;;23.40;55.00;;;;;;6242668;23;20381;-83
2021/09/26 06:49:57;;;;;;;5.53;4.50;;;23.40;55.00;;;;;;6268850;23;20388;-84
2021/09/26 06:52:23;;;;;;;4.47;4.07;;;23.40;55.00;;;;;;6242385;23;20155;-84
2021/09/26 06:54:49;;;;;;;5.10;4.70;;;23.40;55.00;;;;;;6268406;23;20162;-83
2021/09/26 06:57:15;;;;;;;4.57;4.17;;;23.50;55.00;;;;;;6244112;23;20134;-84
2021/09/26 06:59:41;;;;;;;4.63;4.23;;;23.50;55.60;;;;;;6243651;23;20169;-84
2021/09/26 07:02:07;;;;;;;5.10;4.60;;;23.40;55.00;;;;;;6242743;23;20181;-85
2021/09/26 07:04:33;;;;;;;4.67;4.30;;;23.40;54.90;;;;;;6243852;23;20389;-84
2021/09/26 07:06:59;;;;;;;5.90;5.40;;;23.40;54.90;;;;;;6243288;23;20381;-83
2021/09/26 07:09:25;;;;;;;5.40;4.60;;;23.40;54.90;;;;;;6243709;23;20437;-84
2021/09/26 07:11:51;;;;;;;4.33;4.03;;;23.40;54.90;;;;;;6243669;23;20138;-83
2021/09/26 07:14:17;;;;;;;5.23;4.73;;;23.40;54.90;;;;;;6269774;23;20147;-84
2021/09/26 07:16:43;;;;;;;5.03;4.53;;;23.40;54.90;;;;;;6269176;23;20365;-85
2021/09/26 07:19:09;;;;;;;5.53;4.33;;;23.40;54.90;;;;;;6242694;23;20209;-85
2021/09/26 07:21:34;;;;;;;4.07;3.67;;;23.50;55.00;;;;;;6241633;23;20373;-84
2021/09/26 07:24:02;;;;;;;8.10;5.13;;;23.40;54.90;;;;;;6242340;23;20139;-86
2021/09/26 07:26:29;;;;;;;4.47;3.97;;;23.50;55.00;;;;;;6243149;23;20214;-87
2021/09/26 07:28:57;;;;;;;10.70;5.10;;;23.50;55.00;;;;;;6243347;23;20413;-86
2021/09/26 07:31:23;;;;;;;8.53;4.40;;;23.50;55.20;;;;;;6265473;23;20389;-86
2021/09/26 07:33:51;;;;;;;7.77;5.17;;;23.50;55.30;;;;;;6268303;23;20369;-85
2021/09/26 07:36:17;;;;;;;6.10;4.50;;;23.60;55.20;;;;;;6239961;23;20173;-86
2021/09/26 07:38:49;;;;;;;5.30;4.07;;;23.60;55.10;;;;;;6240178;23;20396;-85
2021/09/26 07:41:16;;;;;;;6.30;4.43;;;23.60;55.10;;;;;;6241505;23;20154;-86
2021/09/26 07:43:42;;;;;;;5.20;4.10;;;23.60;55.00;;;;;;6267129;23;20373;-85
2021/09/26 07:46:08;;;;;;;7.53;3.97;;;23.60;55.00;;;;;;6266708;23;20365;-85
2021/09/26 07:48:34;;;;;;;5.97;4.77;;;23.60;55.00;;;;;;6240075;23;20447;-86
2021/09/26 07:51:02;;;;;;;5.67;4.63;;;23.60;55.00;;;;;;6266729;23;20142;-85
2021/09/26 07:53:28;;;;;;;5.70;4.37;;;23.60;55.00;;;;;;6268387;23;20193;-85
2021/09/26 07:55:57;;;;;;;5.40;4.90;;;23.60;55.00;;;;;;6241468;23;20388;-86
2021/09/26 07:58:26;;;;;;;4.23;3.90;;;23.60;55.00;;;;;;6239307;23;20150;-86
2021/09/26 08:00:53;;;;;;;4.90;4.40;;;23.60;55.00;;;;;;6240416;23;20385;-86
2021/09/26 08:03:20;;;;;;;4.20;3.90;;;23.60;55.00;;;;;;6242989;23;20392;-86
2021/09/26 08:05:46;;;;;;;4.50;4.03;;;23.60;55.00;;;;;;6238360;23;20381;-85
2021/09/26 08:08:23;;;;;;;4.90;4.40;;;23.60;55.00;;;;;;6268435;23;20420;-86
2021/09/26 08:10:53;;;;;;;4.80;4.10;;;23.60;55.00;;;;;;6217953;23;20233;-86
2021/09/26 08:13:31;;;;;;;4.87;4.10;;;23.60;55.00;;;;;;6240635;23;20369;-86
2021/09/26 08:16:17;;;;;;;;;;;;;;;;;;;;;
2021/09/26 08:19:40;;;;;;;;;;;;;;;;;;;;;
2021/09/26 08:22:14;;;;;;;5.60;3.97;;;23.60;55.00;;;;;;6266487;23;20373;-87
2021/09/26 08:24:50;;;;;;;;;;;;;;;;;;;;;
2021/09/26 08:34:11;;;;;;;4.73;4.10;;;23.60;55.00;;;;;;6114850;23;20365;-86
2021/09/26 08:36:39;;;;;;;4.63;3.90;;;23.50;55.10;;;;;;6091784;23;20385;-86
2021/09/26 08:39:28;;;;;;;3.93;3.53;;;23.60;55.10;;;;;;6066737;23;20398;-87
2021/09/26 08:42:30;;;;;;;;;;;;;;;;;;;;;
2021/09/26 08:49:07;;;;;;;;;;;;;;;;;;;;;
2021/09/26 08:55:08;;;;;;;8.93;5.07;;;23.60;55.20;;;;;;6003353;23;20410;-86
2021/09/26 08:58:42;;;;;;;8.70;5.33;;;23.50;55.10;;;;;;6003230;24;20366;-86
2021/09/26 09:02:02;;;;;;;;;;;;;;;;;;;;;
2021/09/26 09:05:42;;;;;;;;;;;;;;;;;;;;;
2021/09/26 09:19:15;;;;;;;6.47;5.87;;;23.50;55.20;;;;;;5946695;24;20370;-86
2021/09/26 09:22:17;;;;;;;;;;;;;;;;;;;;;
2021/09/26 09:42:30;;;;;;;5.63;5.10;;;23.60;55.40;;;;;;5949442;24;20397;-87
2021/09/26 09:45:41;;;;;;;6.47;5.80;;;23.60;55.50;;;;;;5980495;24;20420;-86
2021/09/26 09:48:21;;;;;;;5.57;5.00;;;23.60;55.50;;;;;;6002508;24;20436;-87
2021/09/26 09:54:40;;;;;;;5.63;4.67;;;23.70;55.50;;;;;;5997788;24;20381;-87
2021/09/26 09:57:33;;;;;;;6.40;4.87;;;23.60;55.40;;;;;;5981838;24;20382;-87
2021/09/26 10:00:20;;;;;;;9.33;5.77;;;23.60;55.40;;;;;;6004772;24;20385;-87
2021/09/26 10:03:01;;;;;;;7.27;4.80;;;23.60;55.30;;;;;;5980948;24;20389;-86
2021/09/26 10:05:34;;;;;;;5.73;4.97;;;23.60;55.40;;;;;;5979826;24;20480;-86
2021/09/26 10:08:01;;;;;;;5.07;4.67;;;23.60;55.30;;;;;;6033089;23;20426;-87
2021/09/26 10:10:33;;;;;;;7.93;5.07;;;23.60;55.30;;;;;;6060937;23;20379;-87
2021/09/26 10:13:51;;;;;;;6.20;4.87;;;23.60;55.80;;;;;;6143867;23;20410;-87
2021/09/26 10:16:19;;;;;;;5.40;4.70;;;23.70;55.30;;;;;;6192118;23;20398;-87
2021/09/26 10:18:56;;;;;;;5.40;4.90;;;23.60;55.30;;;;;;6211519;23;20394;-86
2021/09/26 10:21:41;;;;;;;;;;;;;;;;;;;;;
2021/09/26 10:24:08;;;;;;;5.97;4.50;;;23.60;55.30;;;;;;6240286;23;20350;-86
2021/09/26 10:26:40;;;;;;;5.23;4.60;;;23.60;55.40;;;;;;6213033;23;20419;-86
2021/09/26 10:29:12;;;;;;;5.23;4.73;;;23.70;55.40;;;;;;6214618;23;20520;-86
2021/09/26 10:31:39;;;;;;;6.00;5.40;;;23.70;55.40;;;;;;6212439;23;20453;-86
2021/09/26 10:34:09;;;;;;;5.93;5.40;;;23.70;55.40;;;;;;6239556;23;20378;-86
2021/09/26 10:36:45;;;;;;;5.30;4.30;;;23.70;55.40;;;;;;6214315;23;20405;-86
2021/09/26 10:39:32;;;;;;;;;;;;;;;;;;;;;
2021/09/26 10:42:40;;;;;;;;;;;;;;;;;;;;;
2021/09/26 10:45:20;;;;;;;;;;;;;;;;;;;;;
2021/09/26 10:48:32;;;;;;;6.13;5.20;;;23.70;55.50;;;;;;6120256;23;20361;-86
2021/09/26 10:51:24;;;;;;;5.40;4.90;;;23.70;55.40;;;;;;6095325;23;20388;-86
2021/09/26 10:54:47;;;;;;;;;;;;;;;;;;;;;
2021/09/26 10:57:41;;;;;;;5.37;4.63;;;23.70;55.50;;;;;;6118898;23;20378;-86
2021/09/26 11:01:01;;;;;;;;;;;;;;;;;;;;;
2021/09/26 11:03:49;;;;;;;5.10;4.50;;;23.60;55.40;;;;;;6119043;23;20362;-86
2021/09/26 11:10:06;;;;;;;6.37;4.57;;;23.70;55.50;;;;;;6108587;23;20429;-85
2021/09/26 11:16:26;;;;;;;5.30;4.60;;;23.70;55.50;;;;;;6112880;23;20451;-87
2021/09/26 11:21:53;;;;;;;;;;;;;;;;;;;;;
2021/09/26 11:38:31;;;;;;;;;;;;;;;;;;;;;
2021/09/26 11:41:07;;;;;;;6.80;4.83;;;23.60;55.70;;;;;;5970262;24;20386;-87
2021/09/26 11:47:03;;;;;;;5.80;5.13;;;23.60;55.60;;;;;;5969303;24;20184;-87
2021/09/26 11:53:50;;;;;;;5.00;4.53;;;23.70;55.70;;;;;;5970419;24;20382;-87
2021/09/26 11:57:44;;;;;;;;;;;;;;;;;;;;;
2021/09/26 12:00:23;;;;;;;4.87;4.47;;;23.60;55.70;;;;;;5911898;24;20392;-89
2021/09/26 12:03:15;;;;;;;6.07;5.47;;;23.60;55.80;;;;;;5920582;24;20386;-88
2021/09/26 12:06:08;;;;;;;;;;;;;;;;;;;;;
2021/09/26 12:08:54;;;;;;;5.20;4.73;;;23.70;55.90;;;;;;5971305;24;20403;-88
2021/09/26 12:11:40;;;;;;;6.50;5.27;;;23.70;56.20;;;;;;6037657;23;20405;-89
2021/09/26 12:14:50;;;;;;;;;;;;;;;;;;;;;
2021/09/26 12:18:30;;;;;;;5.20;4.70;;;23.70;56.20;;;;;;6061877;23;20469;-89
2021/09/26 12:21:37;;;;;;;5.40;4.90;;;23.70;56.40;;;;;;6072170;23;20417;-89
2021/09/26 12:24:19;;;;;;;8.07;4.67;;;23.70;56.70;;;;;;6089595;23;20864;-88
2021/09/26 12:33:58;;;;;;;;;;;;;;;;;;;;;
2021/09/26 12:36:35;;;;;;;6.23;5.50;;;23.80;57.00;;;;;;6171387;23;20379;-89
2021/09/26 12:39:27;;;;;;;6.07;5.50;;;23.80;56.80;;;;;;6171509;23;20383;-89
2021/09/26 12:41:56;;;;;;;5.07;4.60;;;23.80;56.80;;;;;;6172177;23;20379;-89
2021/09/26 12:44:54;;;;;;;6.37;5.77;;;23.80;56.80;;;;;;6172105;23;20395;-89
2021/09/26 12:47:31;;;;;;;5.30;4.77;;;23.80;56.80;;;;;;6059746;23;20402;-89
2021/09/26 12:50:01;;;;;;;6.80;4.83;;;23.80;56.70;;;;;;6085693;23;20648;-89
2021/09/26 12:52:39;;;;;;;5.33;4.83;;;23.80;56.80;;;;;;6085030;23;20451;-89
2021/09/26 12:55:13;;;;;;;5.53;4.77;;;23.80;56.70;;;;;;6060562;23;20452;-89
2021/09/26 12:58:07;;;;;;;6.23;5.33;;;23.80;56.70;;;;;;6060992;23;20370;-89
2021/09/26 13:01:10;;;;;;;5.23;4.77;;;23.80;56.80;;;;;;6082422;23;20379;-89
2021/09/26 13:04:16;;;;;;;5.00;4.60;;;23.80;56.80;;;;;;6060591;23;20383;-89
2021/09/26 13:10:14;;;;;;;;;;;;;;;;;;;;;
2021/09/26 13:13:05;;;;;;;5.30;4.70;;;23.80;57.20;;;;;;6127498;23;20384;-89
2021/09/26 13:15:44;;;;;;;;;;;;;;;;;;;;;
2021/09/26 13:18:28;;;;;;;5.17;4.67;;;23.80;57.50;;;;;;6248964;23;20370;-89
2021/09/26 13:21:40;;;;;;;;;;;;;;;;;;;;;
2021/09/26 13:24:09;;;;;;;4.97;4.57;;;23.90;57.50;;;;;;6115399;23;20404;-89
2021/09/26 13:26:55;;;;;;;6.40;5.30;;;23.80;57.40;;;;;;6067685;23;20409;-89
2021/09/26 13:29:39;;;;;;;6.50;4.80;;;23.90;57.50;;;;;;6115689;23;20424;-89
2021/09/26 13:32:28;;;;;;;5.43;4.60;;;23.90;57.50;;;;;;6116070;23;20361;-88
2021/09/26 13:35:25;;;;;;;7.87;5.00;;;23.90;57.30;;;;;;6115533;23;20374;-89
2021/09/26 13:38:23;;;;;;;4.67;4.20;;;23.90;57.40;;;;;;6114451;23;20373;-89
2021/09/26 13:41:15;;;;;;;5.83;5.00;;;23.90;57.50;;;;;;6080601;23;20380;-89
2021/09/26 13:44:28;;;;;;;5.70;4.30;;;23.90;57.50;;;;;;6115805;23;20373;-89
2021/09/26 13:47:01;;;;;;;5.23;4.73;;;23.90;57.40;;;;;;6028087;23;20404;-89
2021/09/26 13:49:34;;;;;;;6.97;5.20;;;23.90;57.50;;;;;;6029074;23;20431;-88
2021/09/26 13:52:35;;;;;;;5.30;4.77;;;23.90;57.50;;;;;;6028698;23;20465;-89
2021/09/26 13:58:38;;;;;;;5.43;4.93;;;23.90;57.50;;;;;;6002878;23;20422;-89
2021/09/26 14:11:03;;;;;;;5.60;4.90;;;23.90;57.30;;;;;;6023783;23;20410;-88
2021/09/26 14:13:30;;;;;;;5.10;4.60;;;23.90;57.50;;;;;;6022650;23;20380;-88
2021/09/26 14:16:48;;;;;;;4.93;4.53;;;23.90;57.40;;;;;;6023772;23;20397;-88
2021/09/26 14:19:43;;;;;;;4.90;4.50;;;23.90;57.30;;;;;;5913248;24;20416;-87
2021/09/26 14:23:09;;;;;;;;;;;;;;;;;;;;;
2021/09/26 14:26:05;;;;;;;4.93;4.53;;;23.90;57.30;;;;;;5932867;24;20403;-88
2021/09/26 14:28:34;;;;;;;6.20;3.90;;;23.90;57.40;;;;;;5942526;24;20535;-87
2021/09/26 14:37:45;;;;;;;5.30;4.80;;;23.90;57.50;;;;;;6054912;23;20394;-87
2021/09/26 14:40:41;;;;;;;5.47;4.83;;;23.90;57.80;;;;;;6055052;23;20443;-87
2021/09/26 14:50:35;;;;;;;;;;;;;;;;;;;;;
2021/09/26 14:56:06;;;;;;;5.33;4.83;;;23.90;57.60;;;;;;6186536;23;20400;-86
2021/09/26 14:59:18;;;;;;;;;;;;;;;;;;;;;
2021/09/26 15:02:15;;;;;;;;;;;;;;;;;;;;;
2021/09/26 15:05:19;;;;;;;;;;;;;;;;;;;;;
2021/09/26 15:07:49;;;;;;;5.50;4.80;;;23.90;57.60;;;;;;6210374;23;20396;-87
2021/09/26 15:13:28;;;;;;;5.83;4.97;;;23.90;57.50;;;;;;6263980;23;20358;-87
2021/09/26 15:16:27;;;;;;;5.10;4.50;;;23.90;57.50;;;;;;6237099;23;20390;-89
2021/09/26 15:18:59;;;;;;;6.70;5.90;;;23.90;57.70;;;;;;6232575;23;20374;-89
2021/09/26 15:25:13;;;;;;;7.90;5.13;;;23.90;57.80;;;;;;6260192;23;20425;-89
2021/09/26 15:38:07;;;;;;;;;;;;;;;;;;;;;
2021/09/26 15:40:48;;;;;;;6.33;5.70;;;23.80;57.70;;;;;;6170282;23;20423;-87
2021/09/26 15:46:43;;;;;;;;;;;;;;;;;;;;;
2021/09/26 15:56:29;;;;;;;;;;;;;;;;;;;;;
2021/09/26 16:03:14;;;;;;;5.10;4.60;;;23.80;57.90;;;;;;6028499;23;20361;-84
2021/09/26 16:13:15;;;;;;;5.97;5.37;;;23.70;57.90;;;;;;6027625;23;20388;-86
2021/09/26 16:19:26;;;;;;;10.90;5.50;;;23.70;58.20;;;;;;5998874;24;20428;-85
2021/09/26 16:22:15;;;;;;;6.33;5.73;;;23.70;58.30;;;;;;5998647;24;20381;-85
2021/09/26 16:25:29;;;;;;;6.80;6.00;;;23.70;58.40;;;;;;5998450;24;20390;-85
2021/09/26 16:28:02;;;;;;;7.90;5.80;;;23.70;58.50;;;;;;6003670;23;20381;-86
2021/09/26 16:50:34;;;;;;;7.30;5.43;;;23.60;58.60;;;;;;5968590;24;20398;-85
2021/09/26 16:56:17;;;;;;;10.07;6.30;;;23.60;58.50;;;;;;6171450;23;20352;-85
2021/09/26 16:58:47;;;;;;;6.93;5.30;;;23.70;58.70;;;;;;6144245;23;20459;-86
2021/09/26 17:06:00;;;;;;;;;;;;;;;;;;;;;
2021/09/26 17:21:49;;;;;;;7.97;6.40;;;23.60;58.80;;;;;;6169630;23;20372;-87
2021/09/26 17:45:16;;;;;;;;;;;;;;;;;;;;;
2021/09/26 18:01:35;;;;;;;8.37;6.07;;;23.60;59.20;;;;;;5970721;24;20411;-89
2021/09/26 20:24:38;;;;;;;;;;;;;;;;;;;;;
2021/09/26 22:17:58;;;;;;;;;;;;;;;;;;;;;
2021/09/26 23:40:29;;;;;;;;;;;;;;;;;;;;;
2021/09/26 23:47:06;;;;;;;;;;;;;;;;;;;;;
